• Join FlightAware (Why Join?)
  • Login
  • US Flag 
07:40AM EDT


 

Airport Tracker/Info


-or-


 

Live Flight TrackerFlight Track Log ✈ UPS2054 ✈ 10-Apr-2014 ✈ KSDF - KMHT

Flight Track Log - Related Links

Times and Time Zones

All times are in EDT time to prevent confusion due to time zone crossing. See the UPS2054 flight status page for this flight to view local times or setup timezone preferences in your user account.

Time Position Orientation Groundspeed Altitude Reporting Facility
EDT Latitude Longitude Course Direction KTS MPH feet Rate Location/Type
05:04PM 38.1400 -85.7319 103° East 153 176 33,000  Level Indianapolis Center
05:05PM 38.0994 -85.7303 178° South 179 206 4,300 -12,900 Descending Indianapolis Center
05:06PM 38.0719 -85.6478 113° Southeast 313 360 6,400 2,880 Climbing Indianapolis Center
05:06PM 38.0726 -85.5899 90° East 9,100 3,660 Climbing FlightAware ADS-B
05:07PM 38.0722 -85.4797 90° East 369 425 10,800 2,280 Climbing FlightAware ADS-B
05:09PM 38.0585 -85.2384 103° East  Level FlightAware Approximate
05:12PM 38.0002 -84.7201 95° East 484 557 22,100  Level FlightAware ADS-B (KCVG)
05:14PM 38.0218 -84.4127 75° East 506 582 25,300 1,740 Climbing FlightAware ADS-B (KCVG)
05:14PM 38.0449 -84.3221 69° East 509 586 26,200 1,680 Climbing FlightAware ADS-B (KCVG)
05:15PM 38.0856 -84.2103 64° Northeast 510 587 27,400 1,560 Climbing FlightAware ADS-B (KCVG)
05:18PM 38.3352 -83.6695 60° Northeast 505 581 33,000 1,260 Climbing FlightAware ADS-B (KPMH)
05:19PM 38.3900 -83.5482 60° Northeast 507 583 33,000  Level FlightAware ADS-B (KPMH)
05:20PM 38.4245 -83.4713 60° Northeast 506 582 33,000  Level FlightAware ADS-B (KPMH)
05:20PM 38.4593 -83.3939 60° Northeast 503 579 33,000  Level FlightAware ADS-B (KPMH)
05:21PM 38.5052 -83.2911 60° Northeast 498 573 33,000  Level FlightAware ADS-B (KPMH)
05:21PM 38.5392 -83.2149 60° Northeast 497 572 33,000  Level FlightAware ADS-B (KPMH)
05:22PM 38.5744 -83.1389 58° Northeast 495 570 33,000  Level FlightAware ADS-B (KPMH)
05:22PM 38.6169 -83.0622 52° Northeast 493 567 33,000  Level FlightAware ADS-B (KPMH)
05:23PM 38.6790 -82.9744 45° Northeast 487 560 33,000  Level FlightAware ADS-B (KPMH)
05:24PM 38.7204 -82.9132 50° Northeast 491 565 33,000  Level FlightAware ADS-B (KPMH)
05:24PM 38.7689 -82.8398 50° Northeast 490 564 33,000  Level FlightAware ADS-B (KPMH)
05:25PM 38.8141 -82.7665 54° Northeast 492 566 33,000  Level FlightAware ADS-B (KPMH)
05:25PM 38.8599 -82.6757 60° Northeast 493 567 33,000  Level FlightAware ADS-B (KPMH)
05:26PM 38.8999 -82.5889 60° Northeast 492 566 33,000  Level FlightAware ADS-B (KPMH)
05:26PM 38.9359 -82.5102 60° Northeast 495 570 33,000  Level FlightAware ADS-B (KPMH)
05:27PM 38.9697 -82.4359 60° Northeast 498 573 33,000  Level FlightAware ADS-B (KPMH)
05:27PM 39.0137 -82.3384 60° Northeast 499 574 33,000  Level FlightAware ADS-B (KPMH)
05:28PM 39.0568 -82.2422 60° Northeast 498 573 33,000  Level FlightAware ADS-B (KPMH)
05:29PM 39.1029 -82.1394 60° Northeast 498 573 33,000  Level FlightAware ADS-B (KPMH)
05:30PM 39.1813 -81.9639 60° Northeast 498 573 33,000  Level FlightAware ADS-B (KPMH)
05:30PM 39.2036 -81.9136 60° Northeast 496 571 33,000  Level Cleveland Center
05:31PM 39.2856 -81.7292 60° Northeast 496 571 33,000  Level Cleveland Center
05:33PM 39.3544 -81.5728 60° Northeast 496 571 33,000  Level Indianapolis Center
05:34PM 39.4439 -81.3967 57° Northeast 491 565 33,000  Level Indianapolis Center
05:35PM 39.5169 -81.2469 58° Northeast 493 567 33,000  Level Indianapolis Center
05:36PM 39.5875 -81.0967 59° Northeast 493 567 33,000  Level Indianapolis Center
05:37PM 39.6508 -80.9656 58° Northeast 492 566 33,000  Level Cleveland Center
05:38PM 39.7208 -80.8211 58° Northeast 492 566 33,000  Level Cleveland Center
05:43PM 40.1265 -79.9695 59° Northeast 492 566 33,000  Level FlightAware ADS-B (KAGC)
05:44PM 40.1975 -79.8181 59° Northeast 492 566 33,000  Level FlightAware ADS-B (KAGC)
05:46PM 40.3025 -79.5928 59° Northeast 492 566 33,000  Level FlightAware ADS-B (KAGC)
05:46PM 40.3470 -79.4969 59° Northeast 492 566 33,000  Level FlightAware ADS-B (KAGC)
05:47PM 40.3972 -79.3880 59° Northeast 493 567 33,000  Level FlightAware ADS-B (KAGC)
05:48PM 40.4661 -79.2383 59° Northeast 492 566 33,000  Level Cleveland Center
05:49PM 40.5361 -79.0850 59° Northeast 492 566 33,000  Level Cleveland Center
05:51PM 40.6263 -78.8701 60° Northeast  Level FlightAware Approximate
05:51PM 40.6886 -78.7489 60° Northeast 492 566 33,000  Level Cleveland Center
05:52PM 40.7575 -78.5967 59° Northeast 492 566 33,000  Level Cleveland Center
05:59PM 41.2018 -77.5911 60° Northeast 495 570 33,000  Level FlightAware ADS-B (CYYZ)
05:59PM 41.2239 -77.5401 60° Northeast 494 568 33,000  Level FlightAware ADS-B (CYYZ)
06:00PM 41.2787 -77.4133 60° Northeast 492 566 33,000  Level FlightAware ADS-B (CYYZ)
06:00PM 41.3111 -77.3384 60° Northeast 493 567 33,000  Level FlightAware ADS-B (KPHL)
06:01PM 41.3711 -77.1988 60° Northeast 495 570 33,000  Level FlightAware ADS-B (KPHL)
06:02PM 41.4280 -77.0650 60° Northeast 496 571 33,000  Level FlightAware ADS-B
06:02PM 41.4202 -77.0842 61° Northeast 495 570 33,000  Level FlightAware ADS-B (KPHL)
06:02PM 41.4720 -76.9640 60° Northeast 497 572 33,000  Level FlightAware ADS-B
06:03PM 41.5030 -76.8890 60° Northeast 497 572 33,000  Level FlightAware ADS-B
06:03PM 41.5420 -76.7970 60° Northeast 497 572 33,000  Level FlightAware ADS-B
06:04PM 41.5673 -76.7379 61° Northeast 496 571 33,000  Level FlightAware ADS-B (KPHL)
06:04PM 41.6080 -76.6400 60° Northeast 497 572 33,000  Level FlightAware ADS-B
06:05PM 41.6165 -76.6213 61° Northeast 496 571 33,000  Level FlightAware ADS-B (KPHL)
06:05PM 41.6430 -76.5580 60° Northeast 497 572 33,000  Level FlightAware ADS-B
06:06PM 41.6780 -76.4740 60° Northeast 498 573 33,000  Level FlightAware ADS-B
06:07PM 41.7650 -76.2670 60° Northeast 500 575 33,000  Level FlightAware ADS-B
06:07PM 41.8080 -76.1620 60° Northeast 498 573 33,000  Level FlightAware ADS-B
06:08PM 41.8490 -76.0620 61° Northeast 499 574 33,000  Level FlightAware ADS-B
06:09PM 41.8790 -75.9900 61° Northeast 498 573 33,000  Level FlightAware ADS-B
06:12PM 42.1210 -75.3970 North 466 536 33,000  Level FlightAware ADS-B
06:13PM 42.1683 -75.2756 63° Northeast 495 570 33,000  Level Boston Center
06:13PM 42.2040 -75.1910 61° Northeast 492 566 33,000  Level FlightAware ADS-B
06:14PM 42.2360 -75.1080 61° Northeast 493 567 33,000  Level FlightAware ADS-B
06:14PM 42.2367 -75.1083 61° Northeast 493 567 33,000  Level Boston Center
06:14PM 42.2710 -75.0220 61° Northeast 493 567 33,000 -240 Level FlightAware ADS-B
06:15PM 42.3003 -74.9469 62° Northeast 492 566 32,800 -720 Descending Boston Center
06:15PM 42.3230 -74.8890 66° East 498 573 32,400 -1,140 Descending FlightAware ADS-B
06:17PM 42.3850 -74.5922 76° East 503 579 30,600 -1,200 Descending Boston Center
06:18PM 42.4228 -74.3964 75° East 496 571 29,300 -1,080 Descending Boston Center
06:19PM 42.4188 -74.3875 63° Northeast  Level Estimated
06:24PM 42.6125 -73.3447 77° East 464 534 23,200  Level FlightAware ADS-B
06:25PM 42.6367 -73.2080 77° East 457 526 21,700 -1,440 Descending FlightAware ADS-B
06:28PM 42.7371 -72.6262 77° East 431 496 16,800 -1,680 Descending FlightAware ADS-B
06:31PM 42.7894 -72.3186 82° East 394 453 11,500 -1,920 Descending FlightAware ADS-B
06:32PM 42.8086 -72.1079 84° East 324 373 10,400 -1,380 Descending FlightAware ADS-B (KASH)
06:32PM 42.8124 -72.0572 84° East 319 367 9,800 -1,380 Descending FlightAware ADS-B (KASH)
06:33PM 42.8166 -71.9997 84° East 312 359 9,200 -1,080 Descending FlightAware ADS-B (KASH)
06:33PM 42.8190 -71.9672 84° East 308 354 9,000 -420 Descending FlightAware ADS-B (KASH)
06:34PM 42.8234 -71.9085 84° East 309 356 8,900 -720 Descending FlightAware ADS-B (KASH)
06:34PM 42.8300 -71.8511 78° East 311 358 8,300 -1,320 Descending FlightAware ADS-B (KASH)
06:35PM 42.8585 -71.8076 37° Northeast 303 349 7,600 -840 Descending FlightAware ADS-B (KASH)
06:35PM 42.8899 -71.7760 37° Northeast 280 322 7,500 -300 Descending FlightAware ADS-B (KASH)
06:35PM 42.9058 -71.7597 37° Northeast 268 308 7,400 -960 Descending FlightAware ADS-B (KASH)
06:36PM 42.9377 -71.7338 28° Northeast 257 296 6,800 -1,200 Descending FlightAware ADS-B (KASH)
06:36PM 42.9686 -71.7108 29° Northeast 242 278 6,200 -1,380 Descending FlightAware ADS-B (KASH)
06:37PM 42.9974 -71.6891 30° Northeast 222 255 5,400 -1,380 Descending FlightAware ADS-B (KASH)
06:38PM 43.0388 -71.6575 28° Northeast 223 257 4,500 -1,200 Descending FlightAware ADS-B (KASH)
06:38PM 43.0670 -71.6381 27° Northeast 218 251 3,900 -1,320 Descending FlightAware ADS-B (KASH)
06:38PM 43.0783 -71.6289 42° Northeast 221 254 3,600 -1,500 Descending FlightAware ADS-B (KASH)
06:39PM 43.0897 -71.6102 59° Northeast 221 254 3,200 -840 Descending FlightAware ADS-B (KASH)
06:39PM 43.1032 -71.5778 69° East 188 216 3,000 -300 Descending FlightAware ADS-B (KASH)
06:40PM 43.0982 -71.5439 119° Southeast 175 201 2,900  Descending FlightAware ADS-B (KASH)
06:40PM 43.0915 -71.5308 136° Southeast 157 181 3,000 180 Climbing FlightAware ADS-B (KASH)
06:40PM 43.0821 -71.5234 153° Southeast 151 174 3,000 -180 Level FlightAware ADS-B (KASH)
06:41PM 43.0617 -71.5106 156° South 159 183 2,900 -540 Descending FlightAware ADS-B (KASH)
06:41PM 43.0514 -71.5044 157° South 157 181 2,600 -960 Descending FlightAware ADS-B (KASH)
06:41PM 43.0333 -71.4935 155° Southeast 146 168 2,200 -720 Descending FlightAware ADS-B (KASH)
06:42PM 43.0240 -71.4880 157° South 143 165 2,100 -600 Descending FlightAware ADS-B (KASH)
06:42PM 43.0145 -71.4824 156° South 127 146 1,900 -840 Descending FlightAware ADS-B (KASH)
06:42PM 42.9991 -71.4733 157° South 126 145 1,500 -840 Descending FlightAware ADS-B (KASH)
06:43PM 42.9911 -71.4689 158° South 123 142 1,300 -780 Descending FlightAware ADS-B (KASH)
06:43PM 42.9777 -71.4608 156° South 123 142 1,000 -660 Descending FlightAware ADS-B (KASH)
06:43PM 42.9672 -71.4545 155° Southeast 111 128 800 -600 Descending FlightAware ADS-B (KASH)
06:44PM 42.9568 -71.4485 156° South 111 128 600 -420 Descending FlightAware ADS-B (KASH)
06:45PM 42.9278 -71.4319 156° South 124 143 300 -300 Descending Boston Center